createdAt,value
2023-02-08T00:01:27.320Z,95.50
2023-02-08T00:03:55.792Z,95.60
2023-02-08T00:06:24.161Z,95.50
2023-02-08T00:08:52.537Z,95.80
2023-02-08T00:11:22.307Z,95.40
2023-02-08T00:13:50.682Z,95.60
2023-02-08T00:16:19.509Z,95.60
2023-02-08T00:18:47.949Z,95.70
2023-02-08T00:21:18.923Z,95.60
2023-02-08T00:23:47.861Z,95.70
2023-02-08T00:26:17.069Z,95.70
2023-02-08T00:28:47.249Z,95.70
2023-02-08T00:31:18.960Z,95.70
2023-02-08T00:33:48.093Z,95.60
2023-02-08T00:36:16.656Z,95.70
2023-02-08T00:38:44.963Z,95.70
2023-02-08T00:41:13.729Z,95.60
2023-02-08T00:43:42.142Z,96.10
2023-02-08T00:46:12.515Z,95.40
2023-02-08T00:48:40.895Z,95.60
2023-02-08T00:51:13.082Z,95.60
2023-02-08T00:53:44.221Z,95.80
2023-02-08T00:56:14.669Z,95.70
2023-02-08T00:58:43.419Z,95.80
2023-02-08T01:01:14.152Z,95.70
2023-02-08T01:03:44.319Z,95.70
2023-02-08T01:06:17.644Z,95.70
2023-02-08T01:08:46.796Z,95.80
2023-02-08T01:11:21.760Z,95.60
2023-02-08T01:13:50.678Z,95.70
2023-02-08T01:16:23.372Z,95.70
2023-02-08T01:18:54.880Z,95.70
2023-02-08T01:21:26.181Z,95.80
2023-02-08T01:23:55.445Z,95.80
2023-02-08T01:26:25.870Z,95.80
2023-02-08T01:30:02.862Z,95.80
2023-02-08T01:32:32.584Z,95.90
2023-02-08T01:35:03.638Z,95.70
2023-02-08T01:37:32.039Z,95.70
2023-02-08T01:40:00.367Z,95.70
2023-02-08T01:42:28.887Z,95.70
2023-02-08T01:45:29.920Z,95.70
2023-02-08T01:48:11.211Z,95.90
2023-02-08T01:50:48.029Z,95.80
2023-02-08T01:53:17.363Z,95.80
2023-02-08T01:55:50.891Z,95.70
2023-02-08T01:58:20.413Z,95.80
2023-02-08T02:00:49.933Z,95.80
2023-02-08T02:03:20.393Z,96.20
2023-02-08T02:05:53.034Z,95.90
2023-02-08T02:08:21.578Z,95.90
2023-02-08T02:10:50.794Z,95.70
2023-02-08T02:13:22.909Z,95.80
2023-02-08T02:15:52.251Z,95.80
2023-02-08T02:18:26.758Z,95.70
2023-02-08T02:21:31.605Z,95.90
2023-02-08T02:24:43.175Z,95.90
2023-02-08T02:27:40.370Z,95.90
2023-02-08T02:31:05.048Z,95.90
2023-02-08T02:33:56.491Z,95.90
2023-02-08T02:36:34.729Z,95.90
2023-02-08T02:39:19.191Z,95.80
2023-02-08T02:42:16.039Z,95.90
2023-02-08T02:44:54.211Z,95.90
2023-02-08T02:47:35.572Z,95.90
2023-02-08T02:50:12.953Z,95.90
2023-02-08T02:52:48.608Z,95.90
2023-02-08T02:55:20.529Z,95.90
2023-02-08T02:57:52.320Z,95.90
2023-02-08T03:00:25.352Z,95.90
2023-02-08T03:02:55.618Z,95.90
2023-02-08T03:05:26.119Z,95.90
2023-02-08T03:08:16.890Z,95.90
2023-02-08T03:11:12.943Z,96.00
2023-02-08T03:13:59.012Z,95.90
2023-02-08T03:16:34.341Z,95.90
2023-02-08T03:19:09.599Z,95.90
2023-02-08T03:21:45.439Z,95.90
2023-02-08T03:24:28.287Z,95.90
2023-02-08T03:27:04.625Z,96.00
2023-02-08T03:29:45.516Z,96.00
2023-02-08T03:32:22.870Z,96.00
2023-02-08T03:34:57.387Z,95.90
2023-02-08T03:37:31.977Z,95.90
2023-02-08T03:40:05.942Z,96.00
2023-02-08T03:42:37.038Z,96.00
2023-02-08T03:45:13.883Z,95.80
2023-02-08T03:47:47.180Z,95.90
2023-02-08T03:50:19.079Z,95.90
2023-02-08T03:52:50.542Z,95.90
2023-02-08T03:55:23.247Z,95.90
2023-02-08T03:57:57.071Z,96.00
2023-02-08T04:00:26.498Z,96.00
2023-02-08T04:03:01.112Z,95.90
2023-02-08T04:05:30.788Z,95.90
2023-02-08T04:08:00.494Z,96.30
2023-02-08T04:10:29.315Z,95.70
2023-02-08T04:12:57.633Z,95.90
2023-02-08T04:15:27.397Z,95.80
2023-02-08T04:17:55.916Z,95.80
2023-02-08T04:20:24.244Z,95.90
2023-02-08T04:22:52.595Z,95.70
2023-02-08T04:25:23.083Z,95.80
2023-02-08T04:27:51.462Z,95.70
2023-02-08T04:30:20.229Z,95.70
2023-02-08T04:32:48.588Z,95.90
2023-02-08T04:35:17.006Z,95.80
2023-02-08T04:37:45.345Z,95.80
2023-02-08T04:40:13.913Z,95.80
2023-02-08T04:42:43.611Z,95.80
2023-02-08T04:45:12.050Z,95.60
2023-02-08T04:47:40.391Z,95.80
2023-02-08T04:50:09.130Z,95.70
2023-02-08T04:52:37.449Z,95.90
2023-02-08T04:55:06.580Z,95.90
2023-02-08T04:57:34.991Z,96.00
2023-02-08T05:00:06.572Z,95.90
2023-02-08T05:02:34.977Z,95.90
2023-02-08T05:05:03.303Z,95.90
2023-02-08T05:07:31.732Z,95.90
2023-02-08T05:10:00.075Z,95.90
2023-02-08T05:12:28.559Z,95.80
2023-02-08T05:14:57.044Z,95.70
2023-02-08T05:17:26.803Z,95.70
2023-02-08T05:19:55.116Z,95.90
2023-02-08T05:22:23.480Z,95.80
2023-02-08T05:24:51.779Z,95.90
2023-02-08T05:27:20.152Z,95.70
2023-02-08T05:29:48.442Z,95.90
2023-02-08T05:32:17.891Z,95.90
2023-02-08T05:34:47.865Z,96.00
2023-02-08T05:37:16.299Z,95.90
2023-02-08T05:39:44.693Z,95.90
2023-02-08T05:42:13.050Z,96.10
2023-02-08T05:44:41.380Z,95.70
2023-02-08T05:47:09.743Z,95.80
2023-02-08T05:49:38.079Z,95.70
2023-02-08T05:52:07.916Z,95.80
2023-02-08T05:54:36.300Z,95.90
2023-02-08T05:57:04.663Z,95.70
2023-02-08T05:59:32.955Z,95.80
2023-02-08T06:02:01.289Z,95.90
2023-02-08T06:04:29.820Z,95.90
2023-02-08T06:06:58.154Z,95.90
2023-02-08T06:09:27.947Z,95.80
2023-02-08T06:11:56.302Z,95.80
2023-02-08T06:14:25.114Z,95.90
2023-02-08T06:16:53.428Z,95.70
2023-02-08T06:19:22.389Z,95.80
2023-02-08T06:21:50.780Z,96.00
2023-02-08T06:24:19.124Z,95.90
2023-02-08T06:26:48.866Z,95.90
2023-02-08T06:29:17.245Z,95.70
2023-02-08T06:31:45.683Z,95.90
2023-02-08T06:34:14.164Z,95.90
2023-02-08T06:36:42.538Z,95.90
2023-02-08T06:39:10.868Z,95.90
2023-02-08T06:41:39.247Z,95.90
2023-02-08T06:44:09.048Z,95.80
2023-02-08T06:46:37.385Z,95.80
2023-02-08T06:49:05.750Z,95.80
2023-02-08T06:51:34.025Z,95.80
2023-02-08T06:54:02.398Z,95.80
2023-02-08T06:56:30.933Z,95.70
2023-02-08T06:58:59.424Z,95.90
2023-02-08T07:01:29.171Z,95.90
2023-02-08T07:03:57.569Z,95.90
2023-02-08T07:06:25.934Z,95.90
2023-02-08T07:08:54.336Z,95.90
2023-02-08T07:11:23.278Z,96.00
2023-02-08T07:13:55.168Z,96.30
2023-02-08T07:16:23.946Z,96.10
2023-02-08T07:18:54.197Z,95.90
2023-02-08T07:21:22.708Z,96.00
2023-02-08T07:23:51.456Z,96.20
2023-02-08T07:26:19.789Z,96.00
2023-02-08T07:28:48.359Z,95.90
2023-02-08T07:31:18.830Z,95.90
2023-02-08T07:33:47.181Z,96.00
2023-02-08T07:36:16.890Z,95.90
2023-02-08T07:38:45.214Z,96.00
2023-02-08T07:41:15.584Z,96.10
2023-02-08T07:43:58.671Z,96.20
2023-02-08T07:46:29.420Z,95.90
2023-02-08T07:48:57.725Z,96.10
2023-02-08T07:51:27.432Z,96.10
2023-02-08T07:53:55.722Z,96.10
2023-02-08T07:56:24.084Z,96.10
2023-02-08T07:58:52.490Z,96.00
2023-02-08T08:01:22.723Z,96.10
2023-02-08T08:03:52.260Z,96.10
2023-02-08T08:06:22.036Z,96.20
2023-02-08T08:08:52.400Z,96.20
2023-02-08T08:11:21.977Z,96.20
2023-02-08T08:13:50.552Z,96.30
2023-02-08T08:16:19.624Z,96.30
2023-02-08T08:18:48.282Z,96.30
2023-02-08T08:21:16.871Z,96.20
2023-02-08T08:23:45.502Z,96.20
2023-02-08T08:26:19.755Z,96.40
2023-02-08T08:28:49.125Z,96.40
2023-02-08T08:31:20.170Z,96.30
2023-02-08T08:33:49.401Z,96.50
2023-02-08T08:36:17.770Z,96.40
2023-02-08T08:38:46.151Z,96.30
2023-02-08T08:41:18.756Z,96.40
2023-02-08T08:43:47.061Z,96.50
2023-02-08T08:46:16.820Z,96.50
2023-02-08T08:48:45.546Z,96.50
2023-02-08T08:51:15.099Z,96.60
2023-02-08T08:53:43.572Z,96.60
2023-02-08T08:56:11.923Z,96.60
2023-02-08T08:58:43.429Z,96.60
2023-02-08T09:01:13.413Z,96.60
2023-02-08T09:03:41.774Z,96.60
2023-02-08T09:06:10.133Z,96.60
2023-02-08T09:08:38.482Z,96.60
2023-02-08T09:11:08.534Z,96.60
2023-02-08T09:13:37.249Z,96.80
2023-02-08T09:16:14.300Z,96.80
2023-02-08T09:18:43.098Z,96.80
2023-02-08T09:21:15.344Z,96.80
2023-02-08T09:23:44.163Z,96.60
2023-02-08T09:26:14.410Z,96.60
2023-02-08T09:28:43.084Z,96.80
2023-02-08T09:31:14.929Z,96.60
2023-02-08T09:33:43.320Z,96.80
2023-02-08T09:36:12.012Z,96.50
2023-02-08T09:38:41.033Z,96.70
2023-02-08T09:41:27.433Z,96.60
2023-02-08T09:44:11.852Z,96.90
2023-02-08T09:46:46.723Z,96.60
2023-02-08T09:49:21.639Z,96.50
2023-02-08T09:51:55.429Z,96.60
2023-02-08T09:54:30.034Z,96.20
2023-02-08T09:57:01.484Z,96.00
2023-02-08T09:59:33.664Z,96.10
2023-02-08T10:02:16.202Z,96.10
2023-02-08T10:04:59.748Z,96.20
2023-02-08T10:07:29.737Z,95.70
2023-02-08T10:10:01.836Z,95.40
2023-02-08T10:12:39.955Z,95.30
2023-02-08T10:15:20.273Z,95.30
2023-02-08T10:18:24.437Z,95.20
2023-02-08T10:21:16.323Z,95.00
2023-02-08T10:24:17.289Z,95.00
2023-02-08T10:26:49.510Z,95.00
2023-02-08T10:30:04.833Z,95.00
2023-02-08T10:32:46.467Z,94.50
2023-02-08T10:35:26.491Z,94.50
2023-02-08T10:37:57.661Z,94.70
2023-02-08T10:40:35.723Z,94.50
2023-02-08T10:43:22.843Z,94.30
2023-02-08T10:45:56.027Z,94.20
2023-02-08T10:48:39.963Z,94.20
2023-02-08T10:51:13.641Z,94.00
2023-02-08T10:53:42.106Z,93.80
2023-02-08T10:56:29.583Z,93.70
2023-02-08T10:59:00.010Z,93.10
2023-02-08T11:01:29.810Z,93.40
2023-02-08T11:04:07.485Z,93.40
2023-02-08T11:06:37.846Z,93.00
2023-02-08T11:09:06.975Z,93.10
2023-02-08T11:11:37.001Z,93.10
2023-02-08T11:14:11.588Z,92.80
2023-02-08T11:16:41.513Z,92.80
2023-02-08T11:19:24.478Z,92.50
2023-02-08T11:22:07.415Z,92.40
2023-02-08T11:24:41.505Z,91.60
2023-02-08T11:27:19.786Z,92.40
2023-02-08T11:29:48.165Z,92.00
2023-02-08T11:32:19.258Z,91.80
2023-02-08T11:34:48.882Z,91.80
2023-02-08T11:37:25.802Z,91.80
2023-02-08T11:39:56.974Z,91.60
2023-02-08T11:42:30.054Z,91.70
2023-02-08T11:45:00.317Z,91.50
2023-02-08T11:47:31.795Z,91.30
2023-02-08T11:50:02.837Z,91.10
2023-02-08T11:52:36.669Z,91.10
2023-02-08T11:55:25.165Z,91.10
2023-02-08T11:57:55.819Z,90.70
2023-02-08T12:00:27.742Z,90.90
2023-02-08T12:03:01.151Z,90.90
2023-02-08T12:05:41.465Z,90.60
2023-02-08T12:08:21.193Z,90.50
2023-02-08T12:11:10.746Z,90.50
2023-02-08T12:14:04.478Z,90.30
2023-02-08T12:17:03.657Z,90.20
2023-02-08T12:19:58.476Z,90.30
2023-02-08T12:22:28.675Z,90.30
2023-02-08T12:25:21.367Z,90.50
2023-02-08T12:28:00.908Z,90.00
2023-02-08T12:30:34.512Z,89.60
2023-02-08T12:33:36.903Z,89.90
2023-02-08T12:36:41.138Z,90.00
2023-02-08T12:39:50.611Z,89.30
2023-02-08T12:42:38.002Z,89.60
2023-02-08T12:45:35.712Z,89.40
2023-02-08T12:48:20.232Z,89.30
2023-02-08T12:50:55.432Z,89.50
2023-02-08T12:53:31.011Z,89.30
2023-02-08T12:56:03.958Z,89.80
2023-02-08T12:58:39.830Z,89.50
2023-02-08T13:01:14.035Z,88.70
2023-02-08T13:03:49.292Z,88.80
2023-02-08T13:06:21.676Z,88.00
2023-02-08T13:08:55.383Z,87.70
2023-02-08T13:11:32.863Z,88.20
2023-02-08T13:14:07.980Z,88.20
2023-02-08T13:16:43.855Z,87.50
2023-02-08T13:19:31.008Z,87.50
2023-02-08T13:22:01.158Z,87.60
2023-02-08T13:24:36.552Z,88.00
2023-02-08T13:27:07.451Z,87.30
2023-02-08T13:29:38.499Z,87.80
2023-02-08T13:32:11.357Z,86.70
2023-02-08T13:34:44.751Z,86.70
2023-02-08T13:37:25.751Z,86.40
2023-02-08T13:40:04.502Z,87.20
2023-02-08T13:42:39.702Z,86.00
2023-02-08T13:45:12.316Z,86.90
2023-02-08T13:47:46.948Z,86.20
2023-02-08T13:50:47.066Z,86.20
2023-02-08T13:53:17.376Z,86.50
2023-02-08T13:56:09.203Z,86.70
2023-02-08T13:58:55.046Z,85.60
2023-02-08T14:01:27.739Z,85.80
2023-02-08T14:04:36.358Z,86.10
2023-02-08T14:07:38.985Z,85.50
2023-02-08T14:10:31.885Z,85.40
2023-02-08T14:13:07.007Z,85.40
2023-02-08T14:15:39.352Z,85.60
2023-02-08T14:18:27.047Z,85.70
2023-02-08T14:21:06.477Z,85.20
2023-02-08T14:23:40.610Z,84.70
2023-02-08T14:26:20.797Z,85.10
2023-02-08T14:28:56.761Z,85.30
2023-02-08T14:31:40.660Z,83.60
2023-02-08T14:34:28.061Z,84.30
2023-02-08T14:37:08.026Z,84.40
2023-02-08T14:39:37.440Z,84.30
2023-02-08T14:42:08.834Z,84.60
2023-02-08T14:45:06.897Z,84.90
2023-02-08T14:48:19.860Z,84.30
2023-02-08T14:51:03.969Z,84.90
2023-02-08T14:53:44.881Z,84.30
2023-02-08T14:56:20.901Z,84.20
2023-02-08T14:58:52.895Z,84.40
2023-02-08T15:01:26.599Z,83.80
2023-02-08T15:04:01.284Z,83.90
2023-02-08T15:07:07.041Z,83.90
2023-02-08T15:09:40.556Z,83.60
2023-02-08T15:12:18.358Z,84.60
2023-02-08T15:14:47.293Z,83.90
2023-02-08T15:17:30.134Z,83.50
2023-02-08T15:19:59.196Z,83.10
2023-02-08T15:22:39.845Z,83.10
2023-02-08T15:25:27.469Z,82.60
2023-02-08T15:27:58.772Z,83.10
2023-02-08T15:30:38.437Z,83.30
2023-02-08T15:33:14.487Z,82.10
2023-02-08T15:35:45.058Z,83.30
2023-02-08T15:38:19.772Z,83.20
2023-02-08T15:41:05.399Z,82.60
2023-02-08T15:43:35.270Z,81.50
2023-02-08T15:46:06.929Z,82.90
2023-02-08T15:48:37.076Z,82.60
2023-02-08T15:51:08.198Z,83.00
2023-02-08T15:53:38.577Z,82.90
2023-02-08T15:56:07.998Z,82.60
2023-02-08T15:58:40.815Z,82.70
2023-02-08T16:01:18.075Z,82.40
2023-02-08T16:03:48.902Z,82.10
2023-02-08T16:06:25.150Z,83.30
2023-02-08T16:08:58.868Z,81.90
2023-02-08T16:11:30.082Z,83.00
2023-02-08T16:14:01.190Z,83.10
2023-02-08T16:16:41.875Z,82.70
2023-02-08T16:19:25.068Z,82.10
2023-02-08T16:21:55.261Z,82.00
2023-02-08T16:24:29.417Z,82.70
2023-02-08T16:27:03.110Z,82.50
2023-02-08T16:29:34.451Z,82.60
2023-02-08T16:32:12.956Z,82.60
2023-02-08T16:34:42.165Z,83.30
2023-02-08T16:37:28.456Z,83.60
2023-02-08T16:40:00.020Z,83.10
2023-02-08T16:42:33.787Z,83.90
2023-02-08T16:45:19.027Z,85.40
2023-02-08T16:47:52.015Z,85.50
2023-02-08T16:50:23.686Z,85.00
2023-02-08T16:52:55.956Z,85.30
2023-02-08T16:55:28.599Z,85.70
2023-02-08T16:57:59.080Z,86.50
2023-02-08T17:00:30.252Z,86.30
2023-02-08T17:02:59.056Z,87.20
2023-02-08T17:05:30.543Z,87.00
2023-02-08T17:08:00.056Z,87.10
2023-02-08T17:10:32.284Z,87.80
2023-02-08T17:13:18.656Z,88.20
2023-02-08T17:15:50.584Z,87.70
2023-02-08T17:18:19.255Z,88.40
2023-02-08T17:20:47.795Z,88.40
2023-02-08T17:23:17.659Z,88.40
2023-02-08T17:25:47.623Z,88.50
2023-02-08T17:28:20.315Z,88.50
2023-02-08T17:30:50.092Z,89.80
2023-02-08T17:33:21.378Z,89.80
2023-02-08T17:35:52.752Z,88.60
2023-02-08T17:38:22.474Z,89.20
2023-02-08T17:40:52.282Z,89.10
2023-02-08T17:43:20.768Z,88.50
2023-02-08T17:45:49.084Z,88.20
2023-02-08T17:48:17.866Z,89.40
2023-02-08T17:50:51.019Z,89.00
2023-02-08T17:53:20.809Z,90.00
2023-02-08T17:55:49.291Z,90.10
2023-02-08T17:58:19.295Z,90.20
2023-02-08T18:00:47.807Z,89.50
2023-02-08T18:03:17.260Z,88.90
2023-02-08T18:05:45.739Z,89.50
2023-02-08T18:08:14.685Z,90.00
2023-02-08T18:10:43.501Z,90.10
2023-02-08T18:13:12.152Z,89.10
2023-02-08T18:15:42.422Z,89.00
2023-02-08T18:18:11.292Z,88.90
2023-02-08T18:20:44.856Z,90.00
2023-02-08T18:23:13.406Z,90.60
2023-02-08T18:25:42.716Z,90.20
2023-02-08T18:28:14.725Z,90.10
2023-02-08T18:30:44.510Z,90.50
2023-02-08T18:33:13.744Z,90.40
2023-02-08T18:35:42.714Z,90.20
2023-02-08T18:38:11.175Z,90.40
2023-02-08T18:40:41.544Z,90.70
2023-02-08T18:43:09.847Z,90.80
2023-02-08T18:45:38.175Z,90.80
2023-02-08T18:48:08.016Z,90.90
2023-02-08T18:50:36.368Z,90.80
2023-02-08T18:53:04.797Z,91.10
2023-02-08T18:55:33.594Z,90.60
2023-02-08T18:58:01.949Z,90.90
2023-02-08T19:00:30.319Z,91.00
2023-02-08T19:02:58.668Z,91.00
2023-02-08T19:05:28.346Z,91.10
2023-02-08T19:07:56.696Z,91.30
2023-02-08T19:10:25.026Z,91.10
2023-02-08T19:12:53.400Z,91.20
2023-02-08T19:15:21.830Z,91.00
2023-02-08T19:17:50.257Z,90.70
2023-02-08T19:20:19.007Z,90.40
2023-02-08T19:22:48.722Z,91.40
2023-02-08T19:25:17.375Z,91.30
2023-02-08T19:27:45.803Z,91.50
2023-02-08T19:30:15.880Z,91.10
2023-02-08T19:32:44.367Z,91.00
2023-02-08T19:35:13.254Z,90.70
2023-02-08T19:37:42.902Z,91.50
2023-02-08T19:40:14.204Z,91.80
2023-02-08T19:42:43.818Z,91.70
2023-02-08T19:45:12.720Z,91.70
2023-02-08T19:47:50.977Z,91.80
2023-02-08T19:50:20.374Z,91.70
2023-02-08T19:52:48.747Z,91.80
2023-02-08T19:55:18.654Z,91.70
2023-02-08T19:57:46.963Z,91.60
2023-02-08T20:00:23.429Z,91.80
2023-02-08T20:02:52.845Z,91.90
2023-02-08T20:05:21.292Z,91.80
2023-02-08T20:07:49.742Z,91.30
2023-02-08T20:10:19.559Z,91.10
2023-02-08T20:12:47.968Z,91.40
2023-02-08T20:15:16.447Z,91.50
2023-02-08T20:17:45.733Z,92.00
2023-02-08T20:20:14.144Z,91.80
2023-02-08T20:22:42.569Z,91.90
2023-02-08T20:25:10.960Z,91.80
2023-02-08T20:27:40.804Z,91.90
2023-02-08T20:30:11.908Z,91.70
2023-02-08T20:32:41.053Z,92.30
2023-02-08T20:35:09.822Z,92.30
2023-02-08T20:37:38.366Z,92.20
2023-02-08T20:40:08.049Z,92.10
2023-02-08T20:42:36.482Z,92.40
2023-02-08T20:45:08.851Z,92.00
2023-02-08T20:47:46.043Z,92.40
2023-02-08T20:50:19.284Z,92.40
2023-02-08T20:52:49.078Z,92.30
2023-02-08T20:55:17.736Z,92.50
2023-02-08T20:57:46.112Z,92.00
2023-02-08T21:00:17.045Z,91.90
2023-02-08T21:02:45.465Z,92.40
2023-02-08T21:05:13.900Z,92.10
2023-02-08T21:07:42.552Z,92.50
2023-02-08T21:10:11.268Z,92.40
2023-02-08T21:12:39.681Z,92.50
2023-02-08T21:15:09.748Z,91.90
2023-02-08T21:17:41.105Z,92.30
2023-02-08T21:20:12.044Z,92.40
2023-02-08T21:22:40.635Z,92.80
2023-02-08T21:25:10.313Z,92.10
2023-02-08T21:27:38.820Z,92.60
2023-02-08T21:30:10.649Z,92.00
2023-02-08T21:32:41.792Z,92.50
2023-02-08T21:35:10.483Z,92.30
2023-02-08T21:37:38.904Z,92.10
2023-02-08T21:40:08.097Z,91.90
2023-02-08T21:42:36.545Z,92.70
2023-02-08T21:45:05.816Z,92.10
2023-02-08T21:47:34.300Z,92.50
2023-02-08T21:50:21.881Z,92.50
2023-02-08T21:53:10.143Z,92.30
2023-02-08T21:55:38.529Z,92.70
2023-02-08T21:58:06.933Z,93.00
2023-02-08T22:00:35.434Z,92.50
2023-02-08T22:03:03.826Z,92.60
2023-02-08T22:05:51.359Z,92.50
2023-02-08T22:08:19.760Z,92.60
2023-02-08T22:10:57.802Z,92.30
2023-02-08T22:13:27.134Z,92.10
2023-02-08T22:15:55.575Z,92.80
2023-02-08T22:18:24.015Z,92.10
2023-02-08T22:20:54.755Z,92.70
2023-02-08T22:23:23.163Z,93.00
2023-02-08T22:25:51.555Z,93.10
2023-02-08T22:28:19.997Z,92.60
2023-02-08T22:30:49.400Z,92.70
2023-02-08T22:33:18.009Z,93.00
2023-02-08T22:35:46.394Z,92.80
2023-02-08T22:38:16.169Z,92.70
2023-02-08T22:40:44.905Z,92.80
2023-02-08T22:43:13.401Z,92.70
2023-02-08T22:45:42.369Z,93.00
2023-02-08T22:48:11.330Z,92.90
2023-02-08T22:50:40.108Z,93.10
2023-02-08T22:53:08.444Z,92.90
2023-02-08T22:55:38.202Z,93.00
2023-02-08T22:58:06.639Z,93.00
2023-02-08T23:00:35.050Z,93.30
2023-02-08T23:03:03.494Z,93.00
2023-02-08T23:05:31.782Z,93.00
2023-02-08T23:08:00.161Z,93.00
2023-02-08T23:10:28.519Z,93.00
2023-02-08T23:13:06.229Z,93.00
2023-02-08T23:15:34.917Z,93.00
2023-02-08T23:18:03.510Z,92.90
2023-02-08T23:20:31.905Z,92.70
2023-02-08T23:23:00.316Z,93.00
2023-02-08T23:25:29.250Z,93.00
2023-02-08T23:27:59.464Z,93.10
2023-02-08T23:30:27.918Z,92.90
2023-02-08T23:32:56.574Z,92.40
2023-02-08T23:35:25.014Z,93.10
2023-02-08T23:37:53.420Z,92.90
2023-02-08T23:40:21.959Z,93.00
2023-02-08T23:42:50.383Z,93.20
2023-02-08T23:45:20.513Z,93.00
2023-02-08T23:47:49.126Z,92.50
2023-02-08T23:50:17.656Z,92.50
2023-02-08T23:52:46.084Z,92.80
2023-02-08T23:55:14.530Z,93.10
2023-02-08T23:57:43.072Z,92.40
